Flight Track Log - Related Links

Times and Time Zones

All times are in EDT time to prevent confusion due to time zone crossing. See the UAL3773 flight status page for this flight to view local times or setup timezone preferences in your user account.

Time Position Orientation Groundspeed Altitude Reporting Facility
EDT Latitude Longitude Course Direction KTS MPH feet Rate Location/Type
Thu 10:30:41 AM 35.1928 -80.9331 72° East 164 189 1,600  Level Atlanta Center
Thu 10:32:07 AM 35.1208 -80.8925 155° Southeast 268 308 4,000 1,983 Climbing Atlanta Center
Thu 10:32:39 AM 35.1156 -80.8472 98° East 281 323 5,500 2,739 Climbing Atlanta Center
Thu 10:33:39 AM 35.1550 -80.7592 61° Northeast 309 356 8,200 2,447 Climbing Atlanta Center
Thu 10:34:00 AM 35.2326 -80.5434 30° Northeast  Level FlightAware Approximate
Thu 10:35:00 AM 35.3228 -80.4667 North  Level FlightAware Approximate
Thu 10:35:38 AM 35.2431 -80.5664 61° Northeast 319 367 12,800  Level Washington Center
Thu 10:36:00 AM 35.3662 -80.3423 72° East  Level FlightAware Approximate
Thu 10:36:38 AM 35.2844 -80.4697 62° Northeast 338 389 14,600  Level Washington Center
Thu 10:37:38 AM 35.3347 -80.3608 60° Northeast 358 412 16,900 2,150 Climbing Washington Center
Thu 10:38:38 AM 35.3850 -80.2517 61° Northeast 365 420 18,900 1,850 Climbing Washington Center
Thu 10:39:38 AM 35.4356 -80.1347 62° Northeast 365 420 20,600 1,700 Climbing Washington Center
Thu 10:40:38 AM 35.4700 -79.9964 73° East 375 432 22,300 1,587 Climbing Washington Center
Thu 10:41:39 AM 35.5039 -79.8631 73° East 387 445 23,800 1,500 Climbing Washington Center
Thu 10:42:38 AM 35.5378 -79.7272 73° East 403 464 25,300 1,563 Climbing Washington Center
Thu 10:43:38 AM 35.5739 -79.5858 73° East 416 479 26,900 850 Climbing Washington Center
Thu 10:44:38 AM 35.6164 -79.4400 70° East 436 502 27,000 50 Climbing Washington Center
Thu 10:45:38 AM 35.6689 -79.2967 66° East 441 507 27,000  Level Washington Center
Thu 10:46:38 AM 35.7500 -79.1725 51° Northeast 457 526 27,000  Level Washington Center
Thu 10:47:38 AM 35.8628 -79.0931 30° Northeast 447 514 27,000  Level Washington Center
Thu 10:48:38 AM 35.9758 -79.0083 31° Northeast 458 527 27,000  Level Washington Center
Thu 10:49:38 AM 36.0867 -78.9281 30° Northeast 458 527 27,000  Level Washington Center
Thu 10:50:38 AM 36.1931 -78.8503 31° Northeast 458 527 27,000  Level Washington Center
Thu 10:51:38 AM 36.3017 -78.7672 32° Northeast 458 527 27,000  Level Washington Center
Thu 10:52:38 AM 36.4083 -78.6864 31° Northeast 458 527 27,000  Level Washington Center
Thu 10:53:38 AM 36.5144 -78.6078 31° Northeast 453 521 27,000  Level Washington Center
Thu 10:54:38 AM 36.6208 -78.5267 31° Northeast 453 521 27,000  Level Washington Center
Thu 10:55:38 AM 36.7144 -78.4550 32° Northeast 453 521 27,000  Level Washington Center
Thu 10:56:38 AM 36.8333 -78.3686 30° Northeast 442 509 27,000 -750 Level Washington Center
Thu 10:57:38 AM 36.9394 -78.2839 33° Northeast 442 509 25,500 -1,000 Descending Washington Center
Thu 10:58:38 AM 37.0372 -78.2069 32° Northeast 452 520 25,000 -250 Descending Washington Center
Thu 10:59:38 AM 37.1539 -78.1194 31° Northeast 452 520 25,000  Level Washington Center
Thu 11:00:38 AM 37.2619 -78.0369 31° Northeast 452 520 25,000 1,000 Level Washington Center
Thu 11:01:38 AM 37.3719 -77.9517 32° Northeast 457 526 27,000 -1,300 Climbing Washington Center
Thu 11:02:38 AM 37.4822 -77.8661 32° Northeast 462 532 22,400 -2,500 Descending Washington Center
Thu 11:03:38 AM 37.5919 -77.7933 28° Northeast 454 522 22,000 -850 Descending Washington Center
Thu 11:04:38 AM 37.6997 -77.7283 26° Northeast 432 497 20,700 -950 Descending Washington Center
Thu 11:05:38 AM 37.8069 -77.6656 25° Northeast 421 484 20,100 -1,600 Descending Washington Center
Thu 11:06:38 AM 37.9167 -77.6000 25° Northeast 421 484 17,500 -2,900 Descending Washington Center
Thu 11:07:38 AM 38.0239 -77.5397 24° Northeast 421 484 14,300 -2,950 Descending Washington Center
Thu 11:08:38 AM 38.1167 -77.4842 25° Northeast 414 476 11,600 -2,150 Descending Washington Center
Thu 11:09:38 AM 38.2197 -77.4206 26° Northeast 382 440 10,000 -850 Descending Washington Center
Thu 11:10:38 AM 38.3019 -77.3697 26° Northeast 333 383 9,900 -850 Descending Washington Center
Thu 11:11:38 AM 38.3875 -77.3558 North 301 346 8,300 -1,550 Descending Washington Center
Thu 11:12:38 AM 38.4689 -77.3578 359° North 295 339 6,800 -1,500 Descending Washington Center
Thu 11:13:38 AM 38.5461 -77.3597 359° North 289 333 5,300 -850 Descending Washington Center
Thu 11:14:38 AM 38.6231 -77.3614 359° North 279 321 5,100 -100 Descending Washington Center
Thu 11:15:38 AM 38.7022 -77.3606 360° North 279 321 5,100 -400 Level Washington Center
Thu 11:16:38 AM 38.7797 -77.3519 North 273 314 4,300 -480 Descending Washington Center
Thu 11:17:43 AM 38.8667 -77.3500 North 273 314 4,100 -192 Descending Potomac TRACON
Thu 11:18:43 AM 38.9333 -77.3500 360° North 274 315 3,900 -500 Descending Potomac TRACON
Thu 11:19:43 AM 39.0000 -77.3500 360° North 244 281 3,100 -800 Descending Potomac TRACON

Login

Don't have an account? Register now (free) for customized features, flight alerts, and more!